Аэропорт: Стригино. Нижний Новгород

ICAO: UWGG

METAR:
2021-01-19 11:30:00
UWGG 191130Z 34002MPS 8000 -SN NSC M19/M22 Q1015 R36R/090050 NOSIG
METAR:
2021-01-19 07:52:00
TAF UWGG 190752Z 1909/2009 VRB01MPS 8000 SCT013 TXM18/1910Z TNM22/2003Z